createdAt,value
2018-09-05T00:01:57.804Z,9.00
2018-09-05T00:04:26.259Z,8.50
2018-09-05T00:06:54.723Z,7.20
2018-09-05T00:09:23.191Z,8.80
2018-09-05T00:11:51.656Z,9.63
2018-09-05T00:14:20.155Z,8.43
2018-09-05T00:16:48.600Z,10.43
2018-09-05T00:19:17.090Z,10.73
2018-09-05T00:21:45.554Z,10.20
2018-09-05T00:24:14.027Z,8.80
2018-09-05T00:26:42.477Z,8.73
2018-09-05T00:29:10.951Z,8.60
2018-09-05T00:31:39.439Z,6.80
2018-09-05T00:34:16.699Z,6.70
2018-09-05T00:36:45.155Z,8.83
2018-09-05T00:39:13.639Z,7.47
2018-09-05T00:41:42.104Z,7.13
2018-09-05T00:44:10.563Z,9.00
2018-09-05T00:46:39.025Z,8.07
2018-09-05T00:49:07.491Z,7.77
2018-09-05T00:51:35.958Z,8.07
2018-09-05T00:54:04.476Z,6.77
2018-09-05T00:56:32.950Z,7.80
2018-09-05T00:59:01.425Z,9.57
2018-09-05T01:01:30.323Z,7.50
2018-09-05T01:03:58.796Z,7.23
2018-09-05T01:06:27.294Z,9.73
2018-09-05T01:08:55.757Z,9.23
2018-09-05T01:11:24.239Z,8.53
2018-09-05T01:13:52.729Z,8.10
2018-09-05T01:16:21.193Z,7.60
2018-09-05T01:18:49.663Z,7.87
2018-09-05T01:21:18.134Z,7.50
2018-09-05T01:23:46.603Z,7.80
2018-09-05T01:26:15.063Z,11.40
2018-09-05T01:28:43.535Z,9.30
2018-09-05T01:31:12.023Z,8.70
2018-09-05T01:33:40.490Z,7.70
2018-09-05T01:36:14.293Z,10.10
2018-09-05T01:38:43.422Z,7.27
2018-09-05T01:41:13.051Z,6.73
2018-09-05T01:43:42.440Z,12.83
2018-09-05T01:46:11.018Z,10.30
2018-09-05T01:48:39.910Z,7.23
2018-09-05T01:51:08.902Z,7.50
2018-09-05T01:53:37.372Z,9.60
2018-09-05T01:56:05.930Z,7.63
2018-09-05T01:58:34.429Z,6.40
2018-09-05T02:01:02.943Z,11.03
2018-09-05T02:03:31.810Z,6.60
2018-09-05T02:06:00.280Z,6.53
2018-09-05T02:08:28.751Z,8.83
2018-09-05T02:10:57.238Z,6.47
2018-09-05T02:13:25.700Z,6.93
2018-09-05T02:15:54.184Z,7.20
2018-09-05T02:18:22.656Z,7.20
2018-09-05T02:20:51.119Z,6.37
2018-09-05T02:23:19.626Z,7.17
2018-09-05T02:25:48.075Z,6.93
2018-09-05T02:28:16.627Z,6.50
2018-09-05T02:30:45.102Z,6.63
2018-09-05T02:33:13.585Z,7.10
2018-09-05T02:35:42.061Z,6.47
2018-09-05T02:38:10.532Z,8.30
2018-09-05T02:40:39.063Z,7.30
2018-09-05T02:43:07.481Z,10.27
2018-09-05T02:45:35.946Z,6.43
2018-09-05T02:48:04.418Z,7.23
2018-09-05T02:50:32.954Z,7.10
2018-09-05T02:53:02.111Z,7.03
2018-09-05T02:55:35.946Z,7.23
2018-09-05T02:58:04.454Z,6.97
2018-09-05T03:00:32.974Z,7.77
2018-09-05T03:03:01.435Z,7.80
2018-09-05T03:05:29.890Z,7.60
2018-09-05T03:07:58.342Z,8.00
2018-09-05T03:10:26.798Z,7.53
2018-09-05T03:12:55.260Z,6.70
2018-09-05T03:15:23.754Z,7.47
2018-09-05T03:17:52.218Z,8.07
2018-09-05T03:20:20.721Z,9.60
2018-09-05T03:22:49.198Z,7.40
2018-09-05T03:25:17.656Z,10.60
2018-09-05T03:27:46.119Z,6.83
2018-09-05T03:30:14.567Z,7.07
2018-09-05T03:32:43.163Z,8.17
2018-09-05T03:35:11.514Z,7.37
2018-09-05T03:37:39.973Z,11.20
2018-09-05T03:40:08.436Z,7.27
2018-09-05T03:42:36.902Z,8.50
2018-09-05T03:45:05.446Z,8.20
2018-09-05T03:47:33.897Z,7.00
2018-09-05T03:50:02.363Z,6.90
2018-09-05T03:52:30.932Z,6.60
2018-09-05T03:54:59.508Z,13.90
2018-09-05T03:57:27.983Z,6.80
2018-09-05T03:59:56.446Z,8.73
2018-09-05T04:02:24.926Z,6.87
2018-09-05T04:04:53.404Z,9.00
2018-09-05T04:07:21.880Z,8.80
2018-09-05T04:09:50.387Z,6.90
2018-09-05T04:12:18.887Z,7.87
2018-09-05T04:14:47.410Z,7.73
2018-09-05T04:17:15.887Z,8.67
2018-09-05T04:19:44.414Z,9.83
2018-09-05T04:22:13.613Z,8.27
2018-09-05T04:24:42.134Z,7.90
2018-09-05T04:27:10.630Z,7.80
2018-09-05T04:29:39.151Z,8.50
2018-09-05T04:32:07.795Z,14.13
2018-09-05T04:34:36.268Z,16.67
2018-09-05T04:37:04.770Z,13.07
2018-09-05T04:39:33.240Z,9.73
2018-09-05T04:42:01.800Z,7.90
2018-09-05T04:44:30.259Z,10.57
2018-09-05T04:46:58.762Z,11.53
2018-09-05T04:49:27.227Z,9.70
2018-09-05T04:51:55.731Z,10.90
2018-09-05T04:54:24.201Z,9.50
2018-09-05T04:56:52.673Z,8.20
2018-09-05T04:59:21.167Z,9.73
2018-09-05T05:01:49.692Z,11.13
2018-09-05T05:04:18.199Z,9.80
2018-09-05T05:06:46.660Z,13.53
2018-09-05T05:09:15.119Z,8.53
2018-09-05T05:11:43.582Z,9.50
2018-09-05T05:14:12.322Z,11.60
2018-09-05T05:16:40.792Z,9.57
2018-09-05T05:19:09.433Z,10.90
2018-09-05T05:21:38.092Z,9.53
2018-09-05T05:24:37.765Z,19.57
2018-09-05T05:27:06.262Z,11.77
2018-09-05T05:29:34.718Z,12.80
2018-09-05T05:32:03.175Z,12.03
2018-09-05T05:34:31.742Z,12.90
2018-09-05T05:37:00.218Z,11.10
2018-09-05T05:39:28.966Z,11.53
2018-09-05T05:41:57.428Z,12.07
2018-09-05T05:44:25.883Z,13.33
2018-09-05T05:46:54.357Z,11.43
2018-09-05T05:49:22.847Z,13.13
2018-09-05T05:51:51.314Z,12.10
2018-09-05T05:54:19.776Z,13.83
2018-09-05T05:56:48.246Z,10.37
2018-09-05T05:59:16.707Z,14.30
2018-09-05T06:01:45.268Z,15.43
2018-09-05T06:04:13.783Z,13.93
2018-09-05T06:06:42.263Z,10.13
2018-09-05T06:09:11.702Z,12.47
2018-09-05T06:11:40.242Z,11.67
2018-09-05T06:14:08.707Z,13.53
2018-09-05T06:16:37.179Z,11.90
2018-09-05T06:19:05.646Z,19.60
2018-09-05T06:21:34.121Z,9.67
2018-09-05T06:24:02.595Z,12.17
2018-09-05T06:26:31.058Z,14.20
2018-09-05T06:28:59.863Z,12.03
2018-09-05T06:31:28.331Z,16.97
2018-09-05T06:33:56.804Z,9.83
2018-09-05T06:36:25.690Z,20.97
2018-09-05T06:38:54.167Z,11.37
2018-09-05T06:41:22.634Z,14.83
2018-09-05T06:43:51.097Z,15.90
2018-09-05T06:46:19.575Z,9.50
2018-09-05T06:48:48.038Z,16.73
2018-09-05T06:51:16.546Z,13.40
2018-09-05T06:53:44.988Z,11.17
2018-09-05T06:56:13.463Z,14.87
2018-09-05T06:58:41.989Z,16.23
2018-09-05T07:01:10.470Z,10.73
2018-09-05T07:03:39.024Z,11.43
2018-09-05T07:06:07.671Z,9.60
2018-09-05T07:08:36.131Z,10.77
2018-09-05T07:11:04.611Z,9.20
2018-09-05T07:13:33.082Z,10.60
2018-09-05T07:16:01.555Z,9.47
2018-09-05T07:18:30.116Z,8.60
2018-09-05T07:21:05.679Z,9.57
2018-09-05T07:23:27.058Z,11.00
2018-09-05T07:25:55.510Z,10.20
2018-09-05T07:28:23.984Z,10.07
2018-09-05T07:30:52.489Z,17.33
2018-09-05T07:33:20.959Z,13.70
2018-09-05T07:35:49.431Z,11.90
2018-09-05T07:38:17.906Z,13.00
2018-09-05T07:40:46.371Z,12.47
2018-09-05T07:43:14.846Z,15.43
2018-09-05T07:45:43.307Z,9.97
2018-09-05T07:48:11.815Z,11.00
2018-09-05T07:50:40.306Z,10.80
2018-09-05T07:53:08.822Z,11.73
2018-09-05T07:55:37.294Z,10.80
2018-09-05T07:58:06.362Z,10.97
2018-09-05T08:00:34.880Z,10.77
2018-09-05T08:03:03.370Z,13.47
2018-09-05T08:05:32.002Z,18.27
2018-09-05T08:08:00.466Z,11.73
2018-09-05T08:10:28.926Z,10.83
2018-09-05T08:12:57.403Z,13.17
2018-09-05T08:15:25.898Z,12.00
2018-09-05T08:17:54.371Z,11.70
2018-09-05T08:20:22.892Z,11.07
2018-09-05T08:22:51.382Z,15.47
2018-09-05T08:25:19.878Z,12.27
2018-09-05T08:27:48.342Z,14.33
2018-09-05T08:30:16.930Z,15.27
2018-09-05T08:32:45.394Z,11.90
2018-09-05T08:35:14.019Z,11.70
2018-09-05T08:37:42.498Z,13.57
2018-09-05T08:40:11.674Z,14.13
2018-09-05T08:42:40.236Z,11.30
2018-09-05T08:45:08.949Z,11.33
2018-09-05T08:47:37.359Z,11.03
2018-09-05T08:50:05.917Z,10.93
2018-09-05T08:52:34.388Z,14.00
2018-09-05T08:55:03.183Z,13.17
2018-09-05T08:57:31.638Z,11.77
2018-09-05T09:00:00.110Z,11.20
2018-09-05T09:02:28.682Z,10.20
2018-09-05T09:04:57.223Z,10.90
2018-09-05T09:07:25.682Z,24.03
2018-09-05T09:09:54.538Z,18.80
2018-09-05T09:12:23.054Z,11.87
2018-09-05T09:14:51.511Z,12.80
2018-09-05T09:17:19.970Z,11.33
2018-09-05T09:19:48.448Z,10.87
2018-09-05T09:22:16.917Z,10.73
2018-09-05T09:24:45.434Z,10.17
2018-09-05T09:27:13.942Z,10.03
2018-09-05T09:29:42.402Z,10.47
2018-09-05T09:32:10.872Z,10.90
2018-09-05T09:34:39.332Z,11.17
2018-09-05T09:37:07.806Z,10.67
2018-09-05T09:39:36.259Z,10.33
2018-09-05T09:42:05.337Z,9.63
2018-09-05T09:44:33.819Z,10.37
2018-09-05T09:47:02.685Z,10.20
2018-09-05T09:49:31.163Z,11.13
2018-09-05T09:52:05.023Z,10.50
2018-09-05T09:54:33.592Z,11.30
2018-09-05T09:57:02.100Z,9.33
2018-09-05T09:59:30.634Z,10.83
2018-09-05T10:02:04.463Z,11.93
2018-09-05T10:04:38.417Z,10.80
2018-09-05T10:07:12.327Z,10.20
2018-09-05T10:09:45.984Z,9.90
2018-09-05T10:12:19.855Z,9.50
2018-09-05T10:14:52.770Z,10.60
2018-09-05T10:17:26.643Z,10.00
2018-09-05T10:19:57.931Z,11.13
2018-09-05T10:22:26.668Z,11.60
2018-09-05T10:24:56.022Z,10.20
2018-09-05T10:27:25.196Z,15.93
2018-09-05T10:29:54.399Z,10.37
2018-09-05T10:32:23.590Z,9.63
2018-09-05T10:34:52.427Z,9.67
2018-09-05T10:37:20.947Z,8.63
2018-09-05T10:39:49.674Z,9.50
2018-09-05T10:42:18.159Z,9.20
2018-09-05T10:44:46.671Z,9.37
2018-09-05T10:47:15.180Z,9.63
2018-09-05T10:49:43.655Z,9.53
2018-09-05T10:52:12.108Z,9.60
2018-09-05T10:54:40.566Z,12.33
2018-09-05T10:57:09.048Z,8.77
2018-09-05T10:59:37.515Z,8.83
2018-09-05T11:02:06.019Z,9.00
2018-09-05T11:04:34.470Z,8.80
2018-09-05T11:07:02.916Z,9.40
2018-09-05T11:09:31.415Z,9.77
2018-09-05T11:11:59.887Z,9.87
2018-09-05T11:14:28.345Z,8.23
2018-09-05T11:16:56.803Z,8.87
2018-09-05T11:19:25.250Z,12.33
2018-09-05T11:21:53.717Z,9.63
2018-09-05T11:24:22.222Z,8.83
2018-09-05T11:26:50.682Z,10.50
2018-09-05T11:29:19.146Z,8.50
2018-09-05T11:31:47.658Z,7.87
2018-09-05T11:34:16.107Z,8.33
2018-09-05T11:36:44.562Z,8.73
2018-09-05T11:39:14.130Z,9.30
2018-09-05T11:41:42.579Z,8.53
2018-09-05T11:44:11.048Z,7.67
2018-09-05T11:46:39.615Z,9.10
2018-09-05T11:49:08.834Z,8.60
2018-09-05T11:51:37.662Z,9.47
2018-09-05T11:54:06.887Z,7.53
2018-09-05T11:56:35.346Z,9.13
2018-09-05T11:59:03.786Z,8.67
2018-09-05T12:01:32.287Z,8.40
2018-09-05T12:04:00.747Z,8.53
2018-09-05T12:06:29.230Z,8.40
2018-09-05T12:08:57.691Z,8.47
2018-09-05T12:11:26.163Z,8.23
2018-09-05T12:13:54.633Z,8.77
2018-09-05T12:16:23.090Z,7.83
2018-09-05T12:18:51.903Z,9.13
2018-09-05T12:21:20.358Z,8.00
2018-09-05T12:23:48.819Z,7.80
2018-09-05T12:26:17.277Z,8.30
2018-09-05T12:28:45.735Z,8.20
2018-09-05T12:31:14.186Z,8.93
2018-09-05T12:33:42.634Z,8.53
2018-09-05T12:36:11.099Z,8.67
2018-09-05T12:38:39.599Z,9.70
2018-09-05T12:41:08.182Z,9.37
2018-09-05T12:43:36.647Z,9.20
2018-09-05T12:46:05.128Z,9.93
2018-09-05T12:48:33.590Z,8.63
2018-09-05T12:51:02.103Z,8.40
2018-09-05T12:53:30.586Z,8.47
2018-09-05T12:55:59.048Z,7.23
2018-09-05T12:58:27.528Z,7.60
2018-09-05T13:00:56.038Z,7.70
2018-09-05T13:03:24.511Z,8.53
2018-09-05T13:05:52.968Z,7.90
2018-09-05T13:08:21.426Z,8.20
2018-09-05T13:10:49.967Z,8.33
2018-09-05T13:13:18.438Z,7.73
2018-09-05T13:15:46.912Z,8.40
2018-09-05T13:18:15.379Z,9.10
2018-09-05T13:20:43.854Z,9.30
2018-09-05T13:23:12.328Z,10.47
2018-09-05T13:25:40.847Z,8.70
2018-09-05T13:28:09.338Z,9.33
2018-09-05T13:30:37.801Z,9.30
2018-09-05T13:33:06.296Z,8.33
2018-09-05T13:35:34.810Z,7.90
2018-09-05T13:38:03.279Z,9.70
2018-09-05T13:40:31.855Z,8.43
2018-09-05T13:43:00.339Z,10.40
2018-09-05T13:45:28.974Z,8.97
2018-09-05T13:47:57.421Z,8.10
2018-09-05T13:50:25.906Z,8.93
2018-09-05T13:52:54.391Z,8.50
2018-09-05T13:55:22.863Z,9.07
2018-09-05T13:57:51.344Z,9.17
2018-09-05T14:00:19.795Z,8.97
2018-09-05T14:02:48.330Z,9.00
2018-09-05T14:05:17.454Z,9.07
2018-09-05T14:07:45.971Z,9.57
2018-09-05T14:10:15.546Z,9.07
2018-09-05T14:12:44.237Z,8.33
2018-09-05T14:15:12.940Z,9.43
2018-09-05T14:17:41.456Z,8.90
2018-09-05T14:20:10.240Z,9.70
2018-09-05T14:22:38.713Z,8.67
2018-09-05T14:25:07.400Z,7.40
2018-09-05T14:27:35.909Z,8.40
2018-09-05T14:30:04.477Z,8.17
2018-09-05T14:32:32.954Z,8.80
2018-09-05T14:35:01.414Z,8.60
2018-09-05T14:37:29.879Z,9.03
2018-09-05T14:39:58.375Z,9.80
2018-09-05T14:42:26.855Z,9.03
2018-09-05T14:44:55.295Z,8.63
2018-09-05T14:47:23.761Z,9.00
2018-09-05T14:49:52.347Z,9.37
2018-09-05T14:52:20.819Z,8.50
2018-09-05T14:54:49.343Z,10.20
2018-09-05T14:57:17.874Z,9.67
2018-09-05T14:59:46.437Z,7.83
2018-09-05T15:02:14.907Z,8.73
2018-09-05T15:04:43.366Z,11.03
2018-09-05T15:07:11.863Z,27.70
2018-09-05T15:09:40.331Z,9.43
2018-09-05T15:12:08.801Z,9.17
2018-09-05T15:14:37.266Z,9.03
2018-09-05T15:17:05.798Z,9.03
2018-09-05T15:19:34.251Z,9.37
2018-09-05T15:22:02.714Z,8.43
2018-09-05T15:24:31.256Z,8.93
2018-09-05T15:26:59.720Z,9.80
2018-09-05T15:29:28.167Z,9.83
2018-09-05T15:31:56.657Z,11.00
2018-09-05T15:34:25.129Z,10.33
2018-09-05T15:36:53.594Z,9.93
2018-09-05T15:39:22.118Z,10.83
2018-09-05T15:41:50.550Z,10.73
2018-09-05T15:44:19.024Z,10.27
2018-09-05T15:46:47.511Z,10.00
2018-09-05T15:49:16.131Z,11.87
2018-09-05T15:51:44.714Z,10.33
2018-09-05T15:54:13.343Z,11.07
2018-09-05T15:56:41.822Z,9.53
2018-09-05T15:59:10.435Z,10.57
2018-09-05T16:01:38.991Z,9.50
2018-09-05T16:04:07.464Z,12.97
2018-09-05T16:06:35.932Z,8.87
2018-09-05T16:09:06.460Z,9.93
2018-09-05T16:11:34.938Z,10.10
2018-09-05T16:14:03.838Z,13.70
2018-09-05T16:16:32.378Z,13.83
2018-09-05T16:19:00.848Z,10.53
2018-09-05T16:21:29.298Z,9.80
2018-09-05T16:23:57.756Z,10.03
2018-09-05T16:26:26.246Z,10.30
2018-09-05T16:28:54.708Z,10.43
2018-09-05T16:31:23.167Z,14.10
2018-09-05T16:33:51.630Z,17.73
2018-09-05T16:36:20.206Z,13.53
2018-09-05T16:38:50.034Z,10.57
2018-09-05T16:41:18.563Z,12.43
2018-09-05T16:43:47.064Z,18.97
2018-09-05T16:46:15.530Z,12.13
2018-09-05T16:48:44.007Z,16.40
2018-09-05T16:51:12.495Z,11.50
2018-09-05T16:53:40.968Z,11.10
2018-09-05T16:56:09.431Z,10.77
2018-09-05T16:58:37.891Z,11.43
2018-09-05T17:01:06.631Z,12.87
2018-09-05T17:03:35.091Z,10.47
2018-09-05T17:06:03.586Z,14.63
2018-09-05T17:08:32.091Z,12.43
2018-09-05T17:11:00.639Z,11.37
2018-09-05T17:13:29.091Z,11.57
2018-09-05T17:15:57.566Z,12.23
2018-09-05T17:18:26.026Z,13.07
2018-09-05T17:20:54.511Z,16.27
2018-09-05T17:23:22.982Z,12.43
2018-09-05T17:25:51.459Z,16.20
2018-09-05T17:28:19.949Z,12.37
2018-09-05T17:30:50.554Z,14.07
2018-09-05T17:33:19.023Z,14.33
2018-09-05T17:35:47.503Z,16.30
2018-09-05T17:38:16.242Z,14.17
2018-09-05T17:40:44.734Z,18.83
2018-09-05T17:43:13.209Z,15.67
2018-09-05T17:45:41.674Z,14.30
2018-09-05T17:48:10.143Z,13.90
2018-09-05T17:50:38.644Z,17.10
2018-09-05T17:53:07.134Z,15.90
2018-09-05T17:55:35.618Z,13.77
2018-09-05T17:58:04.512Z,13.70
2018-09-05T18:00:33.059Z,12.80
2018-09-05T18:03:01.563Z,13.10
2018-09-05T18:05:30.046Z,15.57
2018-09-05T18:07:58.522Z,14.53
2018-09-05T18:10:26.975Z,17.43
2018-09-05T18:12:55.507Z,17.10
2018-09-05T18:15:24.047Z,13.93
2018-09-05T18:17:52.518Z,13.70
2018-09-05T18:20:21.138Z,14.23
2018-09-05T18:22:49.865Z,17.60
2018-09-05T18:25:18.408Z,15.20
2018-09-05T18:27:46.871Z,14.80
2018-09-05T18:30:15.338Z,15.67
2018-09-05T18:32:43.811Z,15.50
2018-09-05T18:35:12.373Z,12.47
2018-09-05T18:37:40.798Z,15.57
2018-09-05T18:40:09.282Z,13.23
2018-09-05T18:42:37.754Z,19.53
2018-09-05T18:45:09.731Z,14.87
2018-09-05T18:47:38.378Z,20.40
2018-09-05T18:50:06.886Z,16.50
2018-09-05T18:52:35.361Z,19.10
2018-09-05T18:55:04.282Z,14.23
2018-09-05T18:57:32.770Z,15.13
2018-09-05T19:00:01.304Z,14.67
2018-09-05T19:02:30.133Z,14.33
2018-09-05T19:04:58.648Z,14.50
2018-09-05T19:07:27.112Z,20.40
2018-09-05T19:09:55.575Z,13.77
2018-09-05T19:12:24.042Z,15.23
2018-09-05T19:14:52.534Z,13.30
2018-09-05T19:17:21.020Z,14.17
2018-09-05T19:19:49.494Z,26.23
2018-09-05T19:22:17.991Z,16.43
2018-09-05T19:24:46.475Z,15.00
2018-09-05T19:27:14.955Z,16.07
2018-09-05T19:29:43.426Z,22.67
2018-09-05T19:32:11.879Z,18.37
2018-09-05T19:34:40.346Z,16.93
2018-09-05T19:37:08.841Z,14.17
2018-09-05T19:39:37.314Z,15.10
2018-09-05T19:42:05.822Z,17.43
2018-09-05T19:44:34.283Z,14.47
2018-09-05T19:47:02.750Z,18.27
2018-09-05T19:49:31.223Z,13.67
2018-09-05T19:51:59.716Z,17.27
2018-09-05T19:54:28.175Z,15.10
2018-09-05T19:56:56.627Z,14.70
2018-09-05T19:59:25.095Z,16.07
2018-09-05T20:01:53.547Z,17.23
2018-09-05T20:04:22.022Z,19.00
2018-09-05T20:06:50.478Z,15.40
2018-09-05T20:09:18.949Z,15.63
2018-09-05T20:11:47.413Z,13.63
2018-09-05T20:14:15.890Z,16.63
2018-09-05T20:16:44.463Z,14.23
2018-09-05T20:19:12.923Z,15.83
2018-09-05T20:21:41.394Z,14.27
2018-09-05T20:24:09.863Z,17.50
2018-09-05T20:26:38.328Z,14.80
2018-09-05T20:29:06.794Z,14.47
2018-09-05T20:31:35.290Z,12.53
2018-09-05T20:34:03.810Z,18.43
2018-09-05T20:36:32.723Z,15.77
2018-09-05T20:39:01.188Z,17.50
2018-09-05T20:41:29.743Z,18.73
2018-09-05T20:43:58.227Z,16.00
2018-09-05T20:46:26.687Z,18.20
2018-09-05T20:48:55.140Z,17.77
2018-09-05T20:51:23.598Z,15.80
2018-09-05T20:53:52.070Z,19.43
2018-09-05T20:56:20.597Z,19.50
2018-09-05T20:58:49.164Z,16.20
2018-09-05T21:01:17.527Z,14.50
2018-09-05T21:03:45.983Z,17.17
2018-09-05T21:06:14.459Z,19.07
2018-09-05T21:08:42.989Z,16.40
2018-09-05T21:11:11.395Z,14.57
2018-09-05T21:13:39.870Z,15.70
2018-09-05T21:16:08.381Z,15.30
2018-09-05T21:18:36.870Z,17.10
2018-09-05T21:21:05.613Z,16.67
2018-09-05T21:23:34.079Z,16.27
2018-09-05T21:26:02.581Z,17.10
2018-09-05T21:28:31.059Z,25.70
2018-09-05T21:30:59.522Z,16.60
2018-09-05T21:33:27.994Z,16.33
2018-09-05T21:35:56.462Z,16.83
2018-09-05T21:38:25.246Z,19.27
2018-09-05T21:40:54.210Z,16.33
2018-09-05T21:43:22.670Z,16.70
2018-09-05T21:45:51.142Z,15.73
2018-09-05T21:48:19.677Z,20.33
2018-09-05T21:50:48.082Z,21.40
2018-09-05T21:53:16.562Z,14.50
2018-09-05T21:55:45.031Z,14.43
2018-09-05T21:58:13.491Z,27.17
2018-09-05T22:00:42.013Z,14.43
2018-09-05T22:03:10.626Z,16.33
2018-09-05T22:05:39.095Z,17.03
2018-09-05T22:08:07.571Z,16.07
2018-09-05T22:10:36.042Z,18.77
2018-09-05T22:13:04.528Z,17.33
2018-09-05T22:15:36.874Z,21.10
2018-09-05T22:18:05.384Z,16.53
2018-09-05T22:20:34.079Z,17.07
2018-09-05T22:23:02.550Z,17.67
2018-09-05T22:25:31.097Z,16.77
2018-09-05T22:27:59.928Z,18.97
2018-09-05T22:30:28.405Z,16.43
2018-09-05T22:32:56.953Z,16.27
2018-09-05T22:35:25.410Z,16.43
2018-09-05T22:37:53.906Z,27.10
2018-09-05T22:40:22.414Z,19.13
2018-09-05T22:43:02.031Z,21.30
2018-09-05T22:45:41.690Z,17.53
2018-09-05T22:48:26.567Z,20.27
2018-09-05T22:51:11.812Z,15.90
2018-09-05T22:54:58.535Z,15.30
2018-09-05T22:57:55.825Z,15.27
2018-09-05T23:00:35.888Z,16.00
2018-09-05T23:03:15.528Z,15.80
2018-09-05T23:05:55.184Z,17.67
2018-09-05T23:08:34.500Z,16.90
2018-09-05T23:11:14.277Z,17.87
2018-09-05T23:13:54.048Z,15.90
2018-09-05T23:16:33.700Z,15.83
2018-09-05T23:19:25.643Z,18.60
2018-09-05T23:21:54.136Z,16.10
2018-09-05T23:24:22.607Z,21.03
2018-09-05T23:26:51.264Z,16.73
2018-09-05T23:29:19.731Z,16.40
2018-09-05T23:31:48.224Z,21.00
2018-09-05T23:34:16.687Z,17.60
2018-09-05T23:36:45.176Z,15.77
2018-09-05T23:39:13.648Z,17.10
2018-09-05T23:41:42.121Z,25.73
2018-09-05T23:44:10.600Z,18.93
2018-09-05T23:46:39.067Z,19.10
2018-09-05T23:49:07.552Z,20.07
2018-09-05T23:51:36.047Z,17.80
2018-09-05T23:54:04.523Z,24.90
2018-09-05T23:56:33.124Z,17.33
2018-09-05T23:59:06.341Z,19.73
